Time;durP1;ratioP1;P1;durP2;ratioP2;P2;SDS_P1;SDS_P2;PMS_P1;PMS_P2;Temp;Humidity;BMP_temperature;BMP_pressure;BME280_temperature;BME280_humidity;BME280_pressure;Samples;Min_cycle;Max_cycle;Signal;HPM_P1;HPM_P2
2022/06/26 00:00:12;;;;;;;12.82;8.57;;;18.60;99.90;;;;;;4925901;28;20570;-74
2022/06/26 00:02:38;;;;;;;12.25;9.90;;;18.60;99.90;;;;;;4924945;28;20054;-74
2022/06/26 00:05:04;;;;;;;12.95;9.77;;;18.50;99.90;;;;;;4923810;28;20135;-74
2022/06/26 00:07:30;;;;;;;12.95;9.88;;;18.60;99.90;;;;;;4922395;28;20087;-73
2022/06/26 00:09:55;;;;;;;10.63;9.07;;;18.60;99.90;;;;;;4938512;28;20164;-73
2022/06/26 00:12:21;;;;;;;9.85;8.25;;;18.50;99.90;;;;;;4931889;28;20775;-74
2022/06/26 00:14:47;;;;;;;10.27;9.27;;;18.50;99.90;;;;;;4936981;29;20090;-74
2022/06/26 00:17:12;;;;;;;10.13;8.98;;;18.50;99.90;;;;;;4938400;28;20055;-73
2022/06/26 00:19:38;;;;;;;12.48;10.77;;;18.40;99.90;;;;;;4932274;28;20109;-74
2022/06/26 00:22:05;;;;;;;11.98;9.57;;;18.40;99.90;;;;;;4935272;28;20039;-74
2022/06/26 00:24:36;;;;;;;13.98;10.02;;;18.40;99.90;;;;;;4934866;29;20094;-74
2022/06/26 00:27:03;;;;;;;12.27;8.23;;;18.40;99.90;;;;;;4936419;29;20043;-74
2022/06/26 00:29:32;;;;;;;11.32;9.43;;;18.40;99.90;;;;;;4928195;28;20771;-74
2022/06/26 00:31:59;;;;;;;10.55;9.43;;;18.30;99.90;;;;;;4938260;29;20070;-75
2022/06/26 00:34:24;;;;;;;13.00;9.98;;;18.40;99.90;;;;;;4940544;28;20062;-74
2022/06/26 00:36:50;;;;;;;11.75;10.55;;;18.40;99.90;;;;;;4926853;28;20051;-74
2022/06/26 00:39:16;;;;;;;13.48;10.40;;;18.40;99.90;;;;;;4934006;29;20058;-74
2022/06/26 00:41:42;;;;;;;15.98;11.68;;;18.40;99.90;;;;;;4928776;28;20054;-74
2022/06/26 00:44:15;;;;;;;13.65;10.77;;;18.40;99.90;;;;;;4925771;29;20570;-73
2022/06/26 00:46:42;;;;;;;12.50;11.20;;;18.30;99.90;;;;;;4930461;29;20066;-74
2022/06/26 00:49:08;;;;;;;12.00;10.32;;;18.30;99.90;;;;;;4940681;28;20058;-74
2022/06/26 00:51:36;;;;;;;14.27;10.13;;;18.30;99.90;;;;;;4940211;28;20047;-74
2022/06/26 00:54:02;;;;;;;11.60;10.35;;;18.30;99.90;;;;;;4932513;28;20051;-73
2022/06/26 00:56:28;;;;;;;13.35;11.88;;;18.30;99.90;;;;;;4934388;28;20055;-73
2022/06/26 00:58:54;;;;;;;13.00;11.70;;;18.20;99.90;;;;;;4933785;28;20078;-73
2022/06/26 01:01:19;;;;;;;15.95;9.68;;;18.20;99.90;;;;;;4933575;28;20074;-73
2022/06/26 01:03:45;;;;;;;11.93;9.93;;;18.20;99.90;;;;;;4934825;28;20833;-73
2022/06/26 01:06:11;;;;;;;11.80;10.60;;;18.20;99.90;;;;;;4929121;28;20630;-74
2022/06/26 01:08:37;;;;;;;14.88;11.10;;;18.20;99.90;;;;;;4938649;29;20149;-74
2022/06/26 01:11:17;;;;;;;12.60;10.85;;;18.20;99.90;;;;;;4930473;28;20159;-73
2022/06/26 01:13:48;;;;;;;13.45;12.00;;;18.20;99.90;;;;;;4933428;29;20486;-73
2022/06/26 01:16:15;;;;;;;13.98;11.27;;;18.20;99.90;;;;;;4929827;29;20067;-73
2022/06/26 01:18:42;;;;;;;13.40;11.25;;;18.20;99.90;;;;;;4933694;28;20158;-73
2022/06/26 01:21:08;;;;;;;10.50;9.40;;;18.20;99.90;;;;;;4931995;28;20059;-72
2022/06/26 01:23:34;;;;;;;12.70;9.85;;;18.20;99.90;;;;;;4933648;28;20047;-73
2022/06/26 01:25:59;;;;;;;13.52;11.55;;;18.20;99.90;;;;;;4938723;28;20047;-73
2022/06/26 01:28:25;;;;;;;18.58;14.25;;;18.20;99.90;;;;;;4938653;28;20133;-74
2022/06/26 01:30:51;;;;;;;16.33;12.40;;;18.20;99.90;;;;;;4935231;28;20769;-74
2022/06/26 01:33:17;;;;;;;17.80;12.60;;;18.30;99.90;;;;;;4936720;29;20059;-74
2022/06/26 01:35:43;;;;;;;13.98;12.40;;;18.40;99.90;;;;;;4939005;28;20059;-73
2022/06/26 01:38:23;;;;;;;16.95;11.05;;;18.40;99.90;;;;;;4938735;28;20049;-74
2022/06/26 01:40:53;;;;;;;17.38;13.15;;;18.50;99.90;;;;;;4939784;28;20050;-74
2022/06/26 01:43:29;;;;;;;17.40;13.82;;;18.50;99.90;;;;;;4937469;28;20051;-74
2022/06/26 01:45:56;;;;;;;13.38;11.98;;;18.60;99.90;;;;;;4937516;28;20075;-73
2022/06/26 01:48:24;;;;;;;18.50;12.48;;;18.60;99.90;;;;;;4921926;28;20211;-74
2022/06/26 01:50:50;;;;;;;14.70;11.93;;;18.60;99.90;;;;;;4934748;29;20487;-73
2022/06/26 01:53:16;;;;;;;10.73;9.50;;;18.60;99.90;;;;;;4934289;29;20998;-74
2022/06/26 01:55:42;;;;;;;18.08;11.20;;;18.60;99.90;;;;;;4930574;28;20555;-74
2022/06/26 01:58:09;;;;;;;15.40;10.73;;;18.60;99.90;;;;;;4930523;29;20047;-74
2022/06/26 02:00:37;;;;;;;12.88;10.30;;;18.60;99.90;;;;;;4927528;29;20570;-74
2022/06/26 02:03:04;;;;;;;12.43;11.07;;;18.60;99.90;;;;;;4935068;28;20880;-73
2022/06/26 02:05:30;;;;;;;10.50;9.15;;;18.60;99.90;;;;;;4920736;29;20062;-74
2022/06/26 02:07:55;;;;;;;13.15;9.80;;;18.70;99.90;;;;;;4933543;28;20039;-73
2022/06/26 02:15:54;;;;;;;12.55;10.10;;;18.70;99.90;;;;;;4932200;29;20161;-74
2022/06/26 02:18:20;;;;;;;12.18;8.43;;;18.70;99.90;;;;;;4928433;29;20139;-74
2022/06/26 02:20:46;;;;;;;11.60;8.52;;;18.70;99.90;;;;;;4933096;29;20867;-74
2022/06/26 02:23:13;;;;;;;10.52;7.88;;;18.80;99.90;;;;;;4934232;29;20051;-74
2022/06/26 02:25:38;;;;;;;12.05;9.23;;;18.80;99.90;;;;;;4929902;28;20052;-74
2022/06/26 02:28:04;;;;;;;12.25;10.32;;;18.80;99.90;;;;;;4932269;28;20122;-74
2022/06/26 02:30:31;;;;;;;11.55;9.95;;;18.70;99.90;;;;;;4932848;28;20043;-74
2022/06/26 02:32:56;;;;;;;13.10;9.85;;;19.10;99.90;;;;;;4936280;28;20718;-75
2022/06/26 02:35:27;;;;;;;17.15;9.98;;;18.70;99.90;;;;;;4936730;28;20054;-74
2022/06/26 02:37:54;;;;;;;10.45;8.55;;;18.80;99.90;;;;;;4933266;29;20146;-74
2022/06/26 02:40:24;;;;;;;17.00;10.45;;;18.70;99.90;;;;;;4932506;28;20065;-74
2022/06/26 02:42:51;;;;;;;13.77;10.20;;;18.70;99.90;;;;;;4932491;28;20039;-75
2022/06/26 02:45:16;;;;;;;12.55;8.98;;;18.70;99.90;;;;;;4937037;28;20047;-76
2022/06/26 02:47:42;;;;;;;14.50;10.32;;;18.70;99.90;;;;;;4931892;28;20386;-76
2022/06/26 02:50:09;;;;;;;12.27;9.02;;;18.70;99.90;;;;;;4933422;28;20052;-75
2022/06/26 02:52:36;;;;;;;12.57;9.52;;;18.60;99.90;;;;;;4935507;29;20093;-74
2022/06/26 02:55:02;;;;;;;10.95;8.45;;;18.60;99.90;;;;;;4934001;28;20048;-75
2022/06/26 02:57:28;;;;;;;8.70;7.32;;;18.50;99.90;;;;;;4930479;28;20491;-76
2022/06/26 02:59:54;;;;;;;8.38;7.10;;;18.30;99.90;;;;;;4937569;28;20062;-74
2022/06/26 03:02:19;;;;;;;13.32;8.48;;;18.40;99.90;;;;;;4937176;28;20062;-75
2022/06/26 03:04:45;;;;;;;8.30;7.40;;;18.40;99.90;;;;;;4936357;28;20070;-75
2022/06/26 03:07:11;;;;;;;6.45;5.85;;;18.30;99.90;;;;;;4926604;28;20803;-74
2022/06/26 03:09:37;;;;;;;8.48;5.93;;;18.30;99.90;;;;;;4921278;29;20051;-75
2022/06/26 03:12:03;;;;;;;5.82;5.22;;;18.30;99.90;;;;;;4928385;28;20396;-76
2022/06/26 03:14:29;;;;;;;5.25;4.75;;;18.20;99.90;;;;;;4930189;28;20054;-76
2022/06/26 03:16:54;;;;;;;5.70;5.10;;;18.20;99.90;;;;;;4929322;29;20055;-76
2022/06/26 03:19:20;;;;;;;9.60;5.38;;;18.10;99.90;;;;;;4931564;29;20482;-75
2022/06/26 03:21:46;;;;;;;6.15;4.38;;;18.10;99.90;;;;;;4936394;28;20150;-76
2022/06/26 03:24:12;;;;;;;6.03;4.22;;;18.10;99.90;;;;;;4936391;28;20051;-76
2022/06/26 03:26:38;;;;;;;7.28;4.60;;;18.10;99.90;;;;;;4923410;28;20051;-77
2022/06/26 03:29:09;;;;;;;6.60;4.85;;;18.10;99.90;;;;;;4925323;28;20052;-77
2022/06/26 03:31:35;;;;;;;5.43;4.93;;;18.00;99.90;;;;;;4935269;28;20073;-77
2022/06/26 03:34:02;;;;;;;6.07;3.97;;;18.00;99.90;;;;;;4939151;28;20109;-77
2022/06/26 03:36:30;;;;;;;8.05;4.43;;;17.90;99.90;;;;;;4936362;28;20051;-78
2022/06/26 03:38:56;;;;;;;5.78;3.97;;;17.90;99.90;;;;;;4925736;28;20051;-76
2022/06/26 03:41:22;;;;;;;5.18;4.20;;;18.00;99.90;;;;;;4925467;29;20047;-77
2022/06/26 03:43:49;;;;;;;5.15;4.75;;;18.00;99.90;;;;;;4925332;28;20097;-76
2022/06/26 03:46:14;;;;;;;5.78;4.40;;;17.90;99.90;;;;;;4920643;28;20142;-77
2022/06/26 03:48:41;;;;;;;7.80;5.30;;;17.90;99.90;;;;;;4932296;29;20058;-76
2022/06/26 03:51:07;;;;;;;5.43;3.78;;;17.90;99.90;;;;;;4936927;28;20967;-77
2022/06/26 03:53:33;;;;;;;4.95;4.45;;;17.90;99.90;;;;;;4937047;28;20110;-77
2022/06/26 03:55:59;;;;;;;6.05;4.20;;;17.90;99.90;;;;;;4926187;28;20416;-76
2022/06/26 03:58:25;;;;;;;6.20;4.18;;;17.90;99.90;;;;;;4935313;29;20051;-76
2022/06/26 04:00:52;;;;;;;4.35;3.88;;;17.90;99.90;;;;;;4932496;28;20097;-76
2022/06/26 04:03:17;;;;;;;3.85;3.17;;;17.90;99.90;;;;;;4933696;28;20798;-76
2022/06/26 04:05:43;;;;;;;4.10;3.70;;;17.90;99.90;;;;;;4932375;28;20135;-76
2022/06/26 04:08:09;;;;;;;5.65;3.28;;;17.80;99.90;;;;;;4933644;28;20658;-76
2022/06/26 04:10:35;;;;;;;4.55;2.95;;;17.80;99.90;;;;;;4928271;28;20816;-76
2022/06/26 04:13:04;;;;;;;5.60;3.25;;;17.80;99.90;;;;;;4930438;28;20077;-76
2022/06/26 04:15:32;;;;;;;3.83;3.00;;;17.80;99.90;;;;;;4937016;28;20067;-77
2022/06/26 04:17:58;;;;;;;3.80;3.10;;;17.80;99.90;;;;;;4936670;28;20047;-76
2022/06/26 04:20:25;;;;;;;3.08;2.63;;;17.80;99.90;;;;;;4930841;29;20566;-76
2022/06/26 04:23:01;;;;;;;2.80;2.60;;;17.70;99.90;;;;;;4935286;28;20043;-76
2022/06/26 04:25:29;;;;;;;3.88;2.60;;;17.70;99.90;;;;;;4937968;28;20051;-76
2022/06/26 04:27:55;;;;;;;2.97;2.55;;;17.70;99.90;;;;;;4937317;28;20057;-76
2022/06/26 04:30:21;;;;;;;3.28;2.30;;;17.70;99.90;;;;;;4938088;28;20155;-76
2022/06/26 04:32:47;;;;;;;3.78;3.47;;;17.70;99.90;;;;;;4933362;28;20044;-76
2022/06/26 04:35:13;;;;;;;3.45;2.80;;;17.70;99.90;;;;;;4929194;29;20142;-76
2022/06/26 04:37:40;;;;;;;4.18;2.70;;;17.80;99.90;;;;;;4934743;28;20050;-77
2022/06/26 04:40:08;;;;;;;3.05;2.42;;;17.80;99.90;;;;;;4929628;28;20079;-77
2022/06/26 04:42:34;;;;;;;3.38;2.80;;;17.80;99.90;;;;;;4936092;28;20123;-77
2022/06/26 04:45:00;;;;;;;4.00;2.88;;;17.80;99.90;;;;;;4928548;28;20051;-77
2022/06/26 04:47:25;;;;;;;2.30;1.95;;;17.80;99.90;;;;;;4932056;29;20061;-76
2022/06/26 04:49:51;;;;;;;3.10;2.80;;;17.80;99.90;;;;;;4921268;29;20044;-77
2022/06/26 04:52:17;;;;;;;4.28;3.60;;;17.80;99.90;;;;;;4935009;29;20545;-77
2022/06/26 04:54:44;;;;;;;5.43;2.78;;;17.80;99.90;;;;;;4936436;28;20067;-76
2022/06/26 04:57:10;;;;;;;2.95;2.65;;;17.80;99.90;;;;;;4937137;28;20055;-77
2022/06/26 04:59:36;;;;;;;3.92;2.92;;;17.80;99.90;;;;;;4939666;29;20134;-76
2022/06/26 05:02:02;;;;;;;4.55;3.03;;;17.80;99.90;;;;;;4941020;28;20086;-77
2022/06/26 05:04:28;;;;;;;5.03;2.78;;;17.80;99.90;;;;;;4939156;28;20055;-77
2022/06/26 05:06:54;;;;;;;2.85;2.55;;;17.80;99.90;;;;;;4939392;28;20511;-76
2022/06/26 05:09:20;;;;;;;3.83;2.67;;;17.80;99.90;;;;;;4939248;28;20053;-76
2022/06/26 05:11:46;;;;;;;2.95;2.63;;;17.90;99.90;;;;;;4939322;29;20106;-76
2022/06/26 05:14:12;;;;;;;3.20;2.90;;;17.90;99.90;;;;;;4937748;28;20063;-76
2022/06/26 05:16:37;;;;;;;3.30;3.00;;;18.00;99.90;;;;;;4940823;28;20519;-76
2022/06/26 05:19:03;;;;;;;3.90;3.10;;;18.00;99.90;;;;;;4940501;28;20110;-77
2022/06/26 05:21:29;;;;;;;4.75;3.60;;;18.10;99.90;;;;;;4930517;28;20054;-77
2022/06/26 05:23:55;;;;;;;5.18;2.88;;;18.20;99.90;;;;;;4941287;28;20070;-77
2022/06/26 05:26:22;;;;;;;3.28;2.92;;;18.30;99.90;;;;;;4937255;29;21168;-77
2022/06/26 05:28:48;;;;;;;3.42;3.13;;;18.30;99.90;;;;;;4940682;28;20063;-77
2022/06/26 05:31:14;;;;;;;3.13;2.83;;;18.50;99.90;;;;;;4935693;28;20062;-77
2022/06/26 05:33:40;;;;;;;4.40;3.70;;;18.60;99.90;;;;;;4940901;28;20083;-76
2022/06/26 05:36:09;;;;;;;3.50;3.20;;;18.60;99.90;;;;;;4936728;28;20785;-76
2022/06/26 05:38:38;;;;;;;4.15;3.40;;;18.60;99.90;;;;;;4939540;28;20137;-76
2022/06/26 05:41:04;;;;;;;7.15;4.10;;;18.60;99.90;;;;;;4934484;28;20079;-77
2022/06/26 05:43:31;;;;;;;4.50;3.65;;;18.60;99.90;;;;;;4934570;28;20821;-77
2022/06/26 05:45:57;;;;;;;4.30;3.80;;;18.60;99.90;;;;;;4930119;29;20410;-77
2022/06/26 05:48:24;;;;;;;4.45;3.72;;;18.50;99.90;;;;;;4927253;28;20090;-77
2022/06/26 05:50:50;;;;;;;6.38;3.47;;;18.50;99.90;;;;;;4922449;29;20066;-77
2022/06/26 05:53:16;;;;;;;6.22;4.25;;;18.50;99.90;;;;;;4929834;29;20055;-77
2022/06/26 05:55:42;;;;;;;4.95;4.47;;;18.50;99.90;;;;;;4922756;29;20122;-77
2022/06/26 05:58:08;;;;;;;6.22;4.45;;;18.50;99.90;;;;;;4933628;29;20043;-77
2022/06/26 06:00:35;;;;;;;5.40;4.90;;;18.60;99.90;;;;;;4929007;29;20047;-77
2022/06/26 06:03:00;;;;;;;5.00;4.50;;;18.70;99.90;;;;;;4930960;29;20039;-77
2022/06/26 06:05:26;;;;;;;7.40;4.53;;;18.70;99.90;;;;;;4936042;28;20071;-78
2022/06/26 06:07:53;;;;;;;6.05;4.68;;;18.80;99.90;;;;;;4935759;28;20150;-76
2022/06/26 06:10:19;;;;;;;7.03;5.53;;;18.90;99.90;;;;;;4937491;28;20051;-76
2022/06/26 06:12:46;;;;;;;6.32;5.00;;;19.00;99.90;;;;;;4928180;28;20809;-76
2022/06/26 06:15:12;;;;;;;6.95;4.90;;;19.10;99.90;;;;;;4932504;28;20866;-76
2022/06/26 06:17:40;;;;;;;5.55;4.97;;;19.10;99.90;;;;;;4931595;28;20907;-76
2022/06/26 06:20:14;;;;;;;6.40;5.15;;;19.10;99.90;;;;;;4936957;29;20066;-76
2022/06/26 06:22:48;;;;;;;7.32;5.72;;;19.20;99.90;;;;;;4933970;28;20106;-77
2022/06/26 06:25:14;;;;;;;6.75;6.05;;;19.20;99.90;;;;;;4931056;28;20058;-76
2022/06/26 06:27:40;;;;;;;8.75;6.50;;;19.30;99.90;;;;;;4932117;29;20154;-76
2022/06/26 06:30:08;;;;;;;6.78;6.03;;;19.30;99.90;;;;;;4926633;28;20087;-77
2022/06/26 06:32:35;;;;;;;6.95;6.15;;;19.40;99.90;;;;;;4925765;29;20154;-77
2022/06/26 06:35:01;;;;;;;9.45;7.03;;;19.70;99.90;;;;;;4929039;28;20051;-76
2022/06/26 06:37:27;;;;;;;8.30;7.50;;;20.00;99.90;;;;;;4928048;28;20049;-76
2022/06/26 06:39:53;;;;;;;9.38;7.93;;;20.10;99.90;;;;;;4921410;28;20942;-76
2022/06/26 06:42:19;;;;;;;11.88;9.23;;;20.10;99.90;;;;;;4925567;29;20483;-77
2022/06/26 06:44:45;;;;;;;12.07;9.32;;;20.10;99.90;;;;;;4931333;28;20054;-76
2022/06/26 06:47:14;;;;;;;11.13;9.07;;;20.10;99.90;;;;;;4927472;28;20047;-76
2022/06/26 06:49:40;;;;;;;12.52;9.40;;;20.20;99.90;;;;;;4923930;29;20058;-76
2022/06/26 06:52:06;;;;;;;15.57;10.10;;;20.50;99.90;;;;;;4935536;28;20043;-76
2022/06/26 06:54:32;;;;;;;13.15;9.80;;;20.60;99.90;;;;;;4929288;28;20791;-76
2022/06/26 06:56:58;;;;;;;13.60;9.52;;;20.60;99.90;;;;;;4930703;28;20039;-77
2022/06/26 06:59:24;;;;;;;17.33;10.55;;;20.70;99.90;;;;;;4934790;28;20597;-77
2022/06/26 07:01:50;;;;;;;15.80;10.60;;;20.60;99.90;;;;;;4934401;28;20044;-77
2022/06/26 07:04:16;;;;;;;15.77;10.75;;;20.40;99.90;;;;;;4936508;28;20070;-77
2022/06/26 07:06:42;;;;;;;14.98;10.32;;;20.20;99.90;;;;;;4932576;29;20043;-77
2022/06/26 07:09:08;;;;;;;13.88;10.15;;;20.10;99.90;;;;;;4932622;28;21335;-77
2022/06/26 07:11:34;;;;;;;15.43;10.60;;;19.90;99.90;;;;;;4923726;28;20048;-77
2022/06/26 07:14:00;;;;;;;15.90;11.63;;;19.90;99.90;;;;;;4922705;29;20138;-77
2022/06/26 07:16:25;;;;;;;13.70;11.32;;;20.00;99.90;;;;;;4924417;29;20058;-77
2022/06/26 07:18:52;;;;;;;15.35;11.80;;;20.10;99.90;;;;;;4925498;28;20416;-77
2022/06/26 07:21:17;;;;;;;15.63;12.20;;;20.20;99.90;;;;;;4927153;29;20052;-77
2022/06/26 07:23:43;;;;;;;17.13;12.98;;;20.30;99.90;;;;;;4927033;28;20074;-77
2022/06/26 07:26:09;;;;;;;13.45;12.05;;;20.40;99.90;;;;;;4922920;28;20058;-77
2022/06/26 07:28:35;;;;;;;14.95;10.93;;;20.70;99.90;;;;;;4925427;28;20546;-77
2022/06/26 07:31:00;;;;;;;15.30;12.13;;;20.90;99.90;;;;;;4926009;28;20094;-78
2022/06/26 07:36:11;;;;;;;16.73;13.00;;;21.50;99.90;;;;;;4918586;28;20058;-77
2022/06/26 07:38:36;;;;;;;13.85;11.15;;;21.80;99.90;;;;;;4921590;28;20214;-76
2022/06/26 07:41:02;;;;;;;14.55;11.13;;;22.20;99.90;;;;;;4923564;29;20051;-77
2022/06/26 07:43:28;;;;;;;12.27;10.73;;;22.10;99.90;;;;;;4928560;28;20058;-77
2022/06/26 07:45:55;;;;;;;12.70;9.93;;;22.70;99.90;;;;;;4928806;28;20758;-76
2022/06/26 07:48:21;;;;;;;13.20;11.85;;;22.70;99.90;;;;;;4925061;28;20051;-76
2022/06/26 07:50:46;;;;;;;16.80;11.95;;;22.30;99.90;;;;;;4924927;29;20052;-76
2022/06/26 07:53:12;;;;;;;13.63;11.63;;;22.00;99.90;;;;;;4929604;29;20141;-76
2022/06/26 07:55:38;;;;;;;13.15;10.18;;;22.30;99.90;;;;;;4927073;29;20500;-76
2022/06/26 07:58:04;;;;;;;13.63;10.98;;;23.20;99.90;;;;;;4923823;28;20114;-76
2022/06/26 08:00:29;;;;;;;14.88;11.30;;;24.20;99.90;;;;;;4923092;29;20135;-76
2022/06/26 08:02:55;;;;;;;10.00;8.63;;;24.50;99.90;;;;;;4925429;28;20047;-76
2022/06/26 08:05:20;;;;;;;10.20;8.80;;;24.70;99.90;;;;;;4922691;29;20582;-76
2022/06/26 08:07:46;;;;;;;14.13;9.30;;;25.60;99.90;;;;;;4926431;29;20629;-76
2022/06/26 08:10:12;;;;;;;9.55;8.57;;;25.50;99.90;;;;;;4927760;28;20055;-76
2022/06/26 08:12:38;;;;;;;12.05;9.43;;;25.50;99.90;;;;;;4926522;29;20796;-76
2022/06/26 08:15:04;;;;;;;10.88;9.50;;;25.60;99.90;;;;;;4930801;28;20991;-76
2022/06/26 08:17:30;;;;;;;11.38;9.40;;;25.30;99.90;;;;;;4582201;28;10000407;-75
2022/06/26 08:19:56;;;;;;;10.75;8.82;;;25.30;99.90;;;;;;4923777;28;20051;-76
2022/06/26 08:22:21;;;;;;;10.98;9.90;;;25.50;99.90;;;;;;4924231;29;20832;-76
2022/06/26 08:24:47;;;;;;;12.82;9.68;;;25.80;99.90;;;;;;4930981;29;20503;-75
2022/06/26 08:27:13;;;;;;;9.40;8.50;;;26.00;99.90;;;;;;4925585;29;20063;-76
2022/06/26 08:29:40;;;;;;;11.20;8.80;;;25.70;99.90;;;;;;4925808;29;20110;-75
2022/06/26 08:32:06;;;;;;;9.13;7.35;;;25.40;99.90;;;;;;4923772;28;20047;-75
2022/06/26 08:34:32;;;;;;;8.15;7.22;;;25.60;99.90;;;;;;4943643;28;20075;-75
2022/06/26 08:36:58;;;;;;;10.02;8.70;;;26.40;99.90;;;;;;4923256;29;20051;-76
2022/06/26 08:39:24;;;;;;;7.57;6.88;;;26.70;99.90;;;;;;4924375;29;20055;-76
2022/06/26 08:41:53;;;;;;;6.95;6.25;;;27.40;99.90;;;;;;4924156;29;20058;-75
2022/06/26 08:44:19;;;;;;;7.78;6.45;;;27.40;99.60;;;;;;4927038;29;20051;-76
2022/06/26 08:46:46;;;;;;;6.85;6.25;;;26.80;99.90;;;;;;4923734;29;20047;-76
2022/06/26 08:49:18;;;;;;;11.63;6.35;;;26.50;99.60;;;;;;4924274;29;20055;-77
2022/06/26 08:51:45;;;;;;;;;;;26.20;98.20;;;;;;4927454;29;20101;-73
2022/06/26 08:54:12;;;;;;;5.00;4.60;;;25.30;95.50;;;;;;4924848;28;19926;-75
2022/06/26 08:56:42;;;;;;;5.03;4.18;;;25.30;99.90;;;;;;4925427;29;20050;-74
2022/06/26 08:59:12;;;;;;;4.30;3.90;;;25.30;97.60;;;;;;4921931;28;20082;-76
2022/06/26 09:01:39;;;;;;;8.25;4.50;;;25.40;98.50;;;;;;4924844;29;20200;-76
2022/06/26 09:04:06;;;;;;;5.88;4.68;;;25.50;98.90;;;;;;4920037;29;20822;-76
2022/06/26 09:06:33;;;;;;;5.63;4.43;;;25.70;97.80;;;;;;4924986;28;20143;-77
2022/06/26 09:08:59;;;;;;;5.88;3.30;;;25.20;97.10;;;;;;4921847;29;20173;-77
2022/06/26 09:11:25;;;;;;;3.65;2.88;;;25.30;98.60;;;;;;4937005;28;20840;-76
2022/06/26 09:13:53;;;;;;;5.35;3.40;;;25.90;98.00;;;;;;4925801;28;20134;-77
2022/06/26 09:16:29;;;;;;;3.30;3.00;;;26.50;96.90;;;;;;4922004;28;20059;-76
2022/06/26 09:18:55;;;;;;;3.40;3.10;;;26.60;95.30;;;;;;4920814;29;20055;-76
2022/06/26 09:21:26;;;;;;;3.08;2.88;;;27.00;97.10;;;;;;4923169;29;20110;-77
2022/06/26 09:23:55;;;;;;;4.32;3.60;;;27.10;95.00;;;;;;4921396;29;20058;-76
2022/06/26 09:26:21;;;;;;;3.58;3.20;;;27.00;96.00;;;;;;4928133;29;20537;-76
2022/06/26 09:28:47;;;;;;;4.95;2.88;;;26.40;95.80;;;;;;4932017;29;20122;-74
2022/06/26 09:31:22;;;;;;;5.05;2.85;;;26.30;95.70;;;;;;4933547;28;20630;-74
2022/06/26 09:33:48;;;;;;;4.65;3.30;;;26.00;95.20;;;;;;4927065;28;20119;-68
2022/06/26 09:36:16;;;;;;;4.03;3.35;;;25.70;96.60;;;;;;4926039;29;20498;-70
2022/06/26 09:38:48;;;;;;;3.83;3.13;;;25.50;96.70;;;;;;4930875;29;20822;-68
2022/06/26 09:41:14;;;;;;;;;;;25.40;96.80;;;;;;4938999;29;20055;-73
2022/06/26 09:43:43;;;;;;;2.72;2.53;;;25.90;95.80;;;;;;4938733;28;19930;-74
2022/06/26 09:46:14;;;;;;;2.85;2.28;;;26.40;96.50;;;;;;4925799;29;20814;-73
2022/06/26 09:48:40;;;;;;;3.15;2.53;;;26.90;95.70;;;;;;4927965;28;20512;-73
2022/06/26 09:51:10;;;;;;;4.60;2.80;;;27.20;96.20;;;;;;4934463;28;20062;-73
2022/06/26 09:53:37;;;;;;;4.68;2.40;;;27.40;94.80;;;;;;4934167;28;20066;-73
2022/06/26 09:56:05;;;;;;;3.67;2.33;;;27.50;95.10;;;;;;4935229;28;20135;-73
2022/06/26 09:58:31;;;;;;;2.97;2.55;;;27.50;95.10;;;;;;4935867;28;20040;-73
2022/06/26 10:06:31;;;;;;;2.08;1.90;;;27.40;94.70;;;;;;4937072;29;20163;-72
2022/06/26 10:09:02;;;;;;;2.28;1.80;;;26.90;92.80;;;;;;4925892;29;20886;-73
2022/06/26 10:11:30;;;;;;;2.60;2.38;;;26.60;93.60;;;;;;4939788;28;20087;-73
2022/06/26 10:14:00;;;;;;;2.58;2.10;;;26.40;93.50;;;;;;4931871;28;20055;-73
2022/06/26 10:16:47;;;;;;;3.58;2.25;;;26.40;92.80;;;;;;4932239;28;20055;-73
2022/06/26 10:19:38;;;;;;;2.55;2.35;;;26.00;93.30;;;;;;4940309;28;20190;-73
2022/06/26 10:22:04;;;;;;;3.70;2.45;;;25.70;92.90;;;;;;4935073;29;20093;-75
2022/06/26 10:24:30;;;;;;;2.40;2.17;;;25.80;95.00;;;;;;4931317;28;20799;-73
2022/06/26 10:26:58;;;;;;;2.97;2.50;;;25.70;94.70;;;;;;4936060;29;20062;-73
2022/06/26 10:29:39;;;;;;;3.60;2.10;;;26.10;94.80;;;;;;4936841;28;20094;-72
2022/06/26 10:32:08;;;;;;;3.22;2.40;;;26.70;95.10;;;;;;4937133;29;20046;-72
2022/06/26 10:34:34;;;;;;;2.67;2.40;;;27.20;94.60;;;;;;4920809;28;20083;-73
2022/06/26 10:37:14;;;;;;;4.05;2.83;;;27.10;93.90;;;;;;4920694;29;20238;-73
2022/06/26 10:39:43;;;;;;;3.42;2.38;;;27.20;93.70;;;;;;4937406;29;20059;-73
2022/06/26 10:45:27;;;;;;;3.08;2.47;;;27.00;92.70;;;;;;4931844;29;20063;-73
2022/06/26 10:47:55;;;;;;;2.25;2.05;;;26.80;92.20;;;;;;4939459;29;20888;-72
2022/06/26 10:50:25;;;;;;;3.03;2.83;;;26.80;93.70;;;;;;4938554;28;20090;-73
2022/06/26 10:52:51;;;;;;;2.47;2.28;;;26.50;92.90;;;;;;4937782;28;20047;-73
2022/06/26 10:55:17;;;;;;;2.38;2.28;;;26.30;93.40;;;;;;4930226;28;20119;-73
2022/06/26 10:57:43;;;;;;;2.22;2.05;;;26.30;93.60;;;;;;4937374;28;20047;-72
2022/06/26 11:00:12;;;;;;;3.95;2.60;;;26.10;93.30;;;;;;4935599;29;20078;-72
2022/06/26 11:02:46;;;;;;;3.85;2.55;;;26.00;92.50;;;;;;4930127;29;20578;-72
2022/06/26 11:05:14;;;;;;;2.42;2.22;;;25.90;92.40;;;;;;4929594;28;20090;-72
2022/06/26 11:07:51;;;;;;;2.30;2.05;;;25.80;93.30;;;;;;4927667;29;20094;-72
2022/06/26 11:10:20;;;;;;;2.85;2.63;;;25.80;92.00;;;;;;4937816;28;20150;-73
2022/06/26 11:12:51;;;;;;;2.53;2.33;;;25.90;92.80;;;;;;4933389;28;20059;-73
2022/06/26 11:15:34;;;;;;;3.05;2.17;;;25.80;93.00;;;;;;4932352;29;20067;-72
2022/06/26 11:18:03;;;;;;;;;;;25.80;92.00;;;;;;4932794;28;20063;-73
2022/06/26 11:20:50;;;;;;;2.30;2.10;;;25.70;91.30;;;;;;4939433;28;20004;-73
2022/06/26 11:23:29;;;;;;;2.97;2.17;;;25.80;92.50;;;;;;4932103;29;20071;-73
2022/06/26 11:25:55;;;;;;;3.67;2.42;;;25.90;92.90;;;;;;4931723;29;20075;-73
2022/06/26 11:28:27;;;;;;;3.13;2.10;;;26.00;92.70;;;;;;4920253;28;20059;-73
2022/06/26 11:30:53;;;;;;;2.72;2.08;;;26.10;92.00;;;;;;4920134;29;20055;-73
2022/06/26 11:33:27;;;;;;;4.18;2.00;;;26.20;92.40;;;;;;4936714;29;20043;-74
2022/06/26 11:35:54;;;;;;;4.63;2.28;;;26.10;91.40;;;;;;4934871;28;20154;-74
2022/06/26 11:38:21;;;;;;;3.20;2.90;;;26.20;92.40;;;;;;4937860;28;20157;-73
2022/06/26 11:40:47;;;;;;;2.75;2.47;;;26.10;91.90;;;;;;4934788;28;20059;-73
2022/06/26 11:43:15;;;;;;;2.45;2.17;;;26.10;92.30;;;;;;4937600;28;20374;-73
2022/06/26 11:45:40;;;;;;;2.58;2.38;;;26.10;92.80;;;;;;4937017;28;20062;-73
2022/06/26 11:48:10;;;;;;;4.05;2.40;;;26.20;92.90;;;;;;4936118;28;20046;-73
2022/06/26 11:50:37;;;;;;;3.72;2.83;;;26.30;93.10;;;;;;4937186;28;20055;-74
2022/06/26 11:53:04;;;;;;;3.38;2.53;;;26.50;93.20;;;;;;4936740;28;20055;-73
2022/06/26 11:55:34;;;;;;;3.60;2.30;;;26.70;93.10;;;;;;4929357;29;20224;-74
2022/06/26 11:58:03;;;;;;;2.60;2.40;;;26.80;92.20;;;;;;4930577;28;20637;-74
2022/06/26 12:00:29;;;;;;;3.42;2.35;;;27.00;92.60;;;;;;4937602;28;20138;-73
2022/06/26 12:02:54;;;;;;;4.43;2.30;;;27.00;92.20;;;;;;4923169;28;20043;-73
2022/06/26 12:05:25;;;;;;;4.95;2.35;;;27.00;92.60;;;;;;4928454;29;20133;-74
2022/06/26 12:07:53;;;;;;;4.25;2.72;;;27.00;92.30;;;;;;4926614;28;20613;-74
2022/06/26 12:10:27;;;;;;;2.80;2.60;;;26.90;92.40;;;;;;4935593;29;20047;-75
2022/06/26 12:12:53;;;;;;;2.55;2.15;;;27.00;91.40;;;;;;4929761;29;20039;-74
2022/06/26 12:15:19;;;;;;;5.95;2.67;;;27.00;92.20;;;;;;4941848;28;20494;-74
2022/06/26 12:17:58;;;;;;;2.45;2.10;;;26.90;92.20;;;;;;4941452;28;20066;-74
2022/06/26 12:20:24;;;;;;;8.27;2.42;;;26.80;91.40;;;;;;4940984;28;20053;-74
2022/06/26 12:22:52;;;;;;;3.70;2.10;;;26.80;92.10;;;;;;4931040;29;20047;-74
2022/06/26 12:25:33;;;;;;;2.50;2.05;;;27.10;92.00;;;;;;4934146;28;20051;-74
2022/06/26 12:28:00;;;;;;;2.47;2.00;;;26.90;91.60;;;;;;4933633;28;20044;-73
2022/06/26 12:30:33;;;;;;;2.28;2.08;;;26.90;92.10;;;;;;4937246;29;20055;-73
2022/06/26 12:32:59;;;;;;;;;;;27.00;92.10;;;;;;4933970;29;20079;-74
2022/06/26 12:35:26;;;;;;;2.08;1.90;;;27.00;91.50;;;;;;4937613;29;19926;-74
2022/06/26 12:37:52;;;;;;;5.75;2.30;;;26.90;90.60;;;;;;4930499;29;20055;-73
2022/06/26 12:40:18;;;;;;;2.35;2.15;;;26.90;91.80;;;;;;4939227;29;20509;-74
2022/06/26 12:42:44;;;;;;;2.75;2.40;;;26.90;92.00;;;;;;4939341;29;20035;-74
2022/06/26 12:45:11;;;;;;;2.08;1.98;;;27.00;91.80;;;;;;4939402;28;20062;-74
2022/06/26 12:47:37;;;;;;;2.78;2.20;;;26.70;91.50;;;;;;4935944;28;20596;-74
2022/06/26 12:50:04;;;;;;;3.75;2.58;;;26.50;91.60;;;;;;4936171;28;20059;-74
2022/06/26 12:52:32;;;;;;;3.55;2.00;;;26.40;91.80;;;;;;4935086;28;20051;-74
2022/06/26 12:54:58;;;;;;;2.13;1.73;;;26.40;92.40;;;;;;4940377;28;20047;-74
2022/06/26 12:57:23;;;;;;;2.38;2.10;;;26.50;92.40;;;;;;4941484;28;20043;-73
2022/06/26 12:59:49;;;;;;;2.22;2.10;;;26.40;92.40;;;;;;4926350;29;20047;-73